Accueil
METAR-TAF:

METAR-TAF

Aéroports :

Bilbao, Espagne

Aéroport international de Bilbao

latitude: 43-18N, longitude: 002-56W, altitude: 42 m

Observation

Le bulletin a été fait il y a 38 minutes, à 09:30 UTC
Vent 4 kt de est/sud-est, variant entre est et sud/sud-est
Température 7°C
Humidité 81%
Pression 1021 hPa
Visibilité 10 km ou plus
Quelques nuages à une hauteur de 3500 ft
Nuages fragmentés à une hauteur de 5000 ft

METAR: LEBB 280930Z 11004KT 080V150 9999 FEW035 BKN050 07/04 Q1021 NOSIG

Heure: 12:08 (10:08 UTC)

Prévision

Le bulletin a été fait il y a 5 heures et 8 minutes, à 05:00 UTC
Prévision valable du 28 à 06 UTC au 29 à 06 UTC
Vent 5 kt de nord/nord-ouest
Visibilité 10 km ou plus
Nuages épars à une hauteur de 5500 ft
Probabilité 30% :
Temporairement
du 28 à 12 UTC au 28 à 15 UTC
Vent 10 kt de nord/nord-est

TAF: LEBB 280500Z 2806/2906 33005KT 9999 SCT055 TX15/2815Z TN04/2906Z PROB30 TEMPO 2812/2815 03010KT

Observations et prévisions météorologiques de plus de 4000 aéroports (messages METAR et TAF).

Les stations disponibles sont représentées par des disques jaunes et rouges sur la carte.

Passer la souris dessus pour voir le nom de la station.

Cliquer dessus pour voir les observations et prévisions météorologiques.

Pour changer de carte: cliquez sur les boutons verts avec une croix noire pour zoomer, sur le bouton vert avec un tiret pour effectuer un zoom arrière, ou sur les flèches vertes pour les cartes adjacentes.


METAR-TAF: